Terminal Aerodrome Forecast
Issued by NWS

Home | Current Version | Previous Version | Text Only | Print | Product List | Glossary On
Versions: 1 2 3 4 5 6 7 8 9 10 11 12 13 14 15 16 17 18 19 20 21 22 23
000
FTUS43 KFGF 111616 AAA
TAFBJI
TAF AMD
KBJI 111616Z 1116/1212 34020G30KT 5SM -SN BLSN BKN008 OVC015
      TEMPO 1116/1118 2SM -SN BLSN OVC010
     FM111900 33018G28KT P6SM SCT010 BKN015
     FM112200 32017KT P6SM SCT015
     FM120400 28005KT P6SM SCT250=

USA.gov is the U.S. government's official web portal to all federal, state and local government web resources and services.